Deseronto, Canada
Current Conditions -  °F | °C
As of 6:00 PM on Saturday 25 Oct 2014 (Local Time) from CYGK Reporting Station
Scattered Clouds Scattered Clouds  
Wind Chill: 55°   Ceiling: Unl
Heat Index: 55°   Visibility: 15mi
Dew Point: 50°   Wind: 8mph
Humidity: 82%   Direction: 270°W
Pressure: 29.53"   Gusts: NA
Location:  44.2°N, 77.03°W
Report Text: CYGK 252200Z 27007KT 15SM SCT025 13/10 A2953 RMK CU3 SLP999 DENSITY ALT 500FT
Loading
Personal Weather Stations






























Interactive Weather Map
Tropical Storm Tracking
New forecast layout! Learn more

10-Day Weather Forecast

Advertisements
Track Severe Weather on mobile